sensor_id;sensor_type;location;lat;lon;timestamp;pressure;altitude;pressure_sealevel;temperature;humidity
7834;BME280;3962;42.696;23.354;2023-04-02T00:02:25;94286.81;;;8.75;70.81
7834;BME280;3962;42.696;23.354;2023-04-02T00:05:26;94282.00;;;8.79;70.43
7834;BME280;3962;42.696;23.354;2023-04-02T00:07:57;94279.56;;;8.85;69.96
7834;BME280;3962;42.696;23.354;2023-04-02T00:10:27;94285.53;;;8.87;69.28
7834;BME280;3962;42.696;23.354;2023-04-02T00:13:03;94280.03;;;8.89;69.58
7834;BME280;3962;42.696;23.354;2023-04-02T00:15:32;94285.03;;;8.92;69.67
7834;BME280;3962;42.696;23.354;2023-04-02T00:18:00;94286.22;;;8.97;69.07
7834;BME280;3962;42.696;23.354;2023-04-02T00:20:29;94286.38;;;8.96;68.99
7834;BME280;3962;42.696;23.354;2023-04-02T00:22:58;94290.19;;;8.93;68.79
7834;BME280;3962;42.696;23.354;2023-04-02T00:25:26;94291.84;;;8.94;68.43
7834;BME280;3962;42.696;23.354;2023-04-02T00:27:54;94294.03;;;8.99;68.33
7834;BME280;3962;42.696;23.354;2023-04-02T00:30:21;94291.66;;;8.96;68.72
7834;BME280;3962;42.696;23.354;2023-04-02T00:32:50;94288.72;;;8.99;67.79
7834;BME280;3962;42.696;23.354;2023-04-02T00:35:20;94291.63;;;8.38;71.85
7834;BME280;3962;42.696;23.354;2023-04-02T00:37:48;94286.84;;;7.73;75.70
7834;BME280;3962;42.696;23.354;2023-04-02T00:40:20;94287.97;;;7.45;76.56
7834;BME280;3962;42.696;23.354;2023-04-02T00:42:49;94296.97;;;7.17;77.87
7834;BME280;3962;42.696;23.354;2023-04-02T00:45:22;94295.09;;;7.10;79.34
7834;BME280;3962;42.696;23.354;2023-04-02T00:47:51;94288.19;;;7.00;80.21
7834;BME280;3962;42.696;23.354;2023-04-02T00:50:22;94291.66;;;7.00;79.73
7834;BME280;3962;42.696;23.354;2023-04-02T00:52:51;94295.81;;;7.03;80.51
7834;BME280;3962;42.696;23.354;2023-04-02T00:55:23;94292.03;;;6.88;81.16
7834;BME280;3962;42.696;23.354;2023-04-02T00:57:51;94294.50;;;6.72;81.35
7834;BME280;3962;42.696;23.354;2023-04-02T01:00:21;94286.66;;;6.62;81.89
7834;BME280;3962;42.696;23.354;2023-04-02T01:03:24;94292.81;;;6.53;81.90
7834;BME280;3962;42.696;23.354;2023-04-02T01:06:00;94298.94;;;6.44;83.59
7834;BME280;3962;42.696;23.354;2023-04-02T01:08:38;94293.44;;;6.38;83.89
7834;BME280;3962;42.696;23.354;2023-04-02T01:11:19;94299.59;;;6.29;83.90
7834;BME280;3962;42.696;23.354;2023-04-02T01:13:56;94292.94;;;6.25;84.78
7834;BME280;3962;42.696;23.354;2023-04-02T01:16:34;94298.81;;;6.19;84.53
7834;BME280;3962;42.696;23.354;2023-04-02T01:19:22;94296.72;;;6.22;85.22
7834;BME280;3962;42.696;23.354;2023-04-02T01:21:57;94294.63;;;6.26;85.00
7834;BME280;3962;42.696;23.354;2023-04-02T01:24:30;94305.97;;;6.36;84.46
7834;BME280;3962;42.696;23.354;2023-04-02T01:27:00;94306.88;;;6.44;84.24
7834;BME280;3962;42.696;23.354;2023-04-02T01:29:30;94311.03;;;6.47;84.27
7834;BME280;3962;42.696;23.354;2023-04-02T01:32:01;94308.28;;;6.48;83.85
7834;BME280;3962;42.696;23.354;2023-04-02T01:34:29;94307.53;;;6.56;83.66
7834;BME280;3962;42.696;23.354;2023-04-02T01:37:13;94312.00;;;6.55;83.16
7834;BME280;3962;42.696;23.354;2023-04-02T01:39:56;94313.34;;;6.59;83.30
7834;BME280;3962;42.696;23.354;2023-04-02T01:42:30;94303.84;;;6.66;84.79
7834;BME280;3962;42.696;23.354;2023-04-02T01:45:02;94307.47;;;6.65;83.71
7834;BME280;3962;42.696;23.354;2023-04-02T01:47:29;94307.91;;;6.61;84.65
7834;BME280;3962;42.696;23.354;2023-04-02T01:49:57;94306.97;;;6.52;84.73
7834;BME280;3962;42.696;23.354;2023-04-02T01:52:34;94302.22;;;6.56;84.72
7834;BME280;3962;42.696;23.354;2023-04-02T01:55:03;94294.50;;;6.45;85.14
7834;BME280;3962;42.696;23.354;2023-04-02T01:57:30;94298.50;;;6.49;85.40
7834;BME280;3962;42.696;23.354;2023-04-02T01:59:59;94297.06;;;6.37;85.91
7834;BME280;3962;42.696;23.354;2023-04-02T02:02:30;94295.94;;;6.39;86.19
7834;BME280;3962;42.696;23.354;2023-04-02T02:04:57;94290.47;;;6.41;85.37
7834;BME280;3962;42.696;23.354;2023-04-02T02:07:24;94281.63;;;6.59;85.78
7834;BME280;3962;42.696;23.354;2023-04-02T02:09:52;94285.22;;;6.68;85.65
7834;BME280;3962;42.696;23.354;2023-04-02T02:12:20;94287.34;;;6.82;84.07
7834;BME280;3962;42.696;23.354;2023-04-02T02:14:47;94284.50;;;6.93;83.90
7834;BME280;3962;42.696;23.354;2023-04-02T02:17:17;94286.75;;;6.88;84.43
7834;BME280;3962;42.696;23.354;2023-04-02T02:19:47;94288.25;;;6.90;84.32
7834;BME280;3962;42.696;23.354;2023-04-02T02:22:20;94293.00;;;6.87;83.27
7834;BME280;3962;42.696;23.354;2023-04-02T02:24:51;94283.22;;;6.97;83.46
7834;BME280;3962;42.696;23.354;2023-04-02T02:27:44;94283.66;;;7.09;83.36
7834;BME280;3962;42.696;23.354;2023-04-02T02:30:15;94297.44;;;7.13;83.25
7834;BME280;3962;42.696;23.354;2023-04-02T02:32:51;94299.34;;;7.20;82.67
7834;BME280;3962;42.696;23.354;2023-04-02T02:35:22;94302.50;;;7.24;81.11
7834;BME280;3962;42.696;23.354;2023-04-02T02:37:55;94300.53;;;7.26;81.41
7834;BME280;3962;42.696;23.354;2023-04-02T02:40:28;94294.56;;;7.24;81.13
7834;BME280;3962;42.696;23.354;2023-04-02T02:43:00;94290.56;;;7.20;80.53
7834;BME280;3962;42.696;23.354;2023-04-02T02:45:32;94303.50;;;6.79;81.19
7834;BME280;3962;42.696;23.354;2023-04-02T02:48:08;94298.09;;;6.53;82.90
7834;BME280;3962;42.696;23.354;2023-04-02T02:50:37;94293.75;;;6.35;83.97
7834;BME280;3962;42.696;23.354;2023-04-02T02:53:20;94294.19;;;6.30;85.20
7834;BME280;3962;42.696;23.354;2023-04-02T02:55:50;94301.94;;;6.32;84.87
7834;BME280;3962;42.696;23.354;2023-04-02T02:58:21;94303.47;;;6.34;85.82
7834;BME280;3962;42.696;23.354;2023-04-02T03:00:52;94308.88;;;6.33;85.50
7834;BME280;3962;42.696;23.354;2023-04-02T03:03:23;94307.53;;;6.19;85.96
7834;BME280;3962;42.696;23.354;2023-04-02T03:05:52;94303.44;;;6.07;86.37
7834;BME280;3962;42.696;23.354;2023-04-02T03:08:24;94314.00;;;6.07;86.50
7834;BME280;3962;42.696;23.354;2023-04-02T03:10:59;94300.25;;;6.04;87.15
7834;BME280;3962;42.696;23.354;2023-04-02T03:13:30;94303.88;;;6.03;87.37
7834;BME280;3962;42.696;23.354;2023-04-02T03:16:02;94303.56;;;6.06;87.55
7834;BME280;3962;42.696;23.354;2023-04-02T03:18:40;94296.97;;;6.19;87.62
7834;BME280;3962;42.696;23.354;2023-04-02T03:21:25;94302.25;;;6.19;87.21
7834;BME280;3962;42.696;23.354;2023-04-02T03:23:57;94311.69;;;6.31;87.35
7834;BME280;3962;42.696;23.354;2023-04-02T03:26:31;94309.84;;;6.32;86.60
7834;BME280;3962;42.696;23.354;2023-04-02T03:29:05;94314.88;;;6.35;85.79
7834;BME280;3962;42.696;23.354;2023-04-02T03:31:38;94311.06;;;6.37;86.15
7834;BME280;3962;42.696;23.354;2023-04-02T03:34:11;94322.72;;;6.44;85.38
7834;BME280;3962;42.696;23.354;2023-04-02T03:36:41;94320.69;;;6.38;86.70
7834;BME280;3962;42.696;23.354;2023-04-02T03:39:17;94320.06;;;6.27;86.98
7834;BME280;3962;42.696;23.354;2023-04-02T03:41:49;94312.78;;;6.38;86.33
7834;BME280;3962;42.696;23.354;2023-04-02T03:44:21;94322.59;;;6.46;86.76
7834;BME280;3962;42.696;23.354;2023-04-02T03:46:52;94325.38;;;6.44;85.81
7834;BME280;3962;42.696;23.354;2023-04-02T03:49:30;94318.19;;;6.37;85.64
7834;BME280;3962;42.696;23.354;2023-04-02T03:52:04;94323.59;;;6.35;86.03
7834;BME280;3962;42.696;23.354;2023-04-02T03:54:31;94322.69;;;6.27;85.43
7834;BME280;3962;42.696;23.354;2023-04-02T03:56:58;94316.13;;;6.31;85.63
7834;BME280;3962;42.696;23.354;2023-04-02T03:59:32;94316.97;;;6.31;85.72
7834;BME280;3962;42.696;23.354;2023-04-02T04:02:15;94319.00;;;6.37;85.48
7834;BME280;3962;42.696;23.354;2023-04-02T04:04:47;94326.34;;;6.43;84.74
7834;BME280;3962;42.696;23.354;2023-04-02T04:07:20;94326.22;;;6.45;84.80
7834;BME280;3962;42.696;23.354;2023-04-02T04:09:50;94326.78;;;6.39;83.91
7834;BME280;3962;42.696;23.354;2023-04-02T04:12:25;94331.94;;;6.40;84.10
7834;BME280;3962;42.696;23.354;2023-04-02T04:14:58;94334.63;;;6.31;83.80
7834;BME280;3962;42.696;23.354;2023-04-02T04:17:31;94333.25;;;6.27;84.48
7834;BME280;3962;42.696;23.354;2023-04-02T04:20:13;94338.00;;;6.23;83.97
7834;BME280;3962;42.696;23.354;2023-04-02T04:22:46;94340.19;;;6.28;84.77
7834;BME280;3962;42.696;23.354;2023-04-02T04:25:20;94342.53;;;6.31;84.62
7834;BME280;3962;42.696;23.354;2023-04-02T04:27:58;94350.31;;;6.32;84.45
7834;BME280;3962;42.696;23.354;2023-04-02T04:30:36;94350.59;;;6.29;84.66
7834;BME280;3962;42.696;23.354;2023-04-02T04:33:12;94341.19;;;6.17;83.76
7834;BME280;3962;42.696;23.354;2023-04-02T04:35:47;94346.47;;;6.17;84.47
7834;BME280;3962;42.696;23.354;2023-04-02T04:38:17;94348.56;;;6.23;84.45
7834;BME280;3962;42.696;23.354;2023-04-02T04:40:54;94347.69;;;6.32;84.87
7834;BME280;3962;42.696;23.354;2023-04-02T04:43:29;94357.13;;;6.35;84.70
7834;BME280;3962;42.696;23.354;2023-04-02T04:46:02;94358.13;;;6.34;86.05
7834;BME280;3962;42.696;23.354;2023-04-02T04:48:34;94355.69;;;6.50;84.11
7834;BME280;3962;42.696;23.354;2023-04-02T04:51:07;94361.78;;;6.50;83.66
7834;BME280;3962;42.696;23.354;2023-04-02T04:53:45;94356.25;;;6.53;84.06
7834;BME280;3962;42.696;23.354;2023-04-02T04:56:16;94354.22;;;6.65;83.55
7834;BME280;3962;42.696;23.354;2023-04-02T04:58:48;94359.38;;;6.93;83.63
7834;BME280;3962;42.696;23.354;2023-04-02T05:01:22;94372.81;;;7.00;83.20
7834;BME280;3962;42.696;23.354;2023-04-02T05:03:55;94360.22;;;6.84;82.20
7834;BME280;3962;42.696;23.354;2023-04-02T05:06:34;94362.00;;;6.66;83.11
7834;BME280;3962;42.696;23.354;2023-04-02T05:09:11;94375.25;;;6.57;84.58
7834;BME280;3962;42.696;23.354;2023-04-02T05:11:42;94365.00;;;6.44;84.76
7834;BME280;3962;42.696;23.354;2023-04-02T05:14:20;94363.63;;;6.50;85.60
7834;BME280;3962;42.696;23.354;2023-04-02T05:16:53;94371.38;;;6.51;85.10
7834;BME280;3962;42.696;23.354;2023-04-02T05:19:24;94370.50;;;6.60;85.41
7834;BME280;3962;42.696;23.354;2023-04-02T05:21:59;94374.50;;;6.74;85.46
7834;BME280;3962;42.696;23.354;2023-04-02T05:24:38;94377.47;;;6.88;84.71
7834;BME280;3962;42.696;23.354;2023-04-02T05:27:17;94377.97;;;7.01;83.91
7834;BME280;3962;42.696;23.354;2023-04-02T05:29:50;94379.97;;;7.16;82.78
7834;BME280;3962;42.696;23.354;2023-04-02T05:32:22;94375.44;;;7.26;82.04
7834;BME280;3962;42.696;23.354;2023-04-02T05:34:53;94379.72;;;7.27;81.99
7834;BME280;3962;42.696;23.354;2023-04-02T05:37:25;94375.38;;;7.36;81.52
7834;BME280;3962;42.696;23.354;2023-04-02T05:39:56;94375.75;;;7.41;80.76
7834;BME280;3962;42.696;23.354;2023-04-02T05:42:26;94379.84;;;7.53;80.10
7834;BME280;3962;42.696;23.354;2023-04-02T05:45:06;94384.75;;;7.65;78.35
7834;BME280;3962;42.696;23.354;2023-04-02T05:47:41;94382.56;;;7.78;78.07
7834;BME280;3962;42.696;23.354;2023-04-02T05:50:22;94384.13;;;8.06;77.93
7834;BME280;3962;42.696;23.354;2023-04-02T05:52:55;94388.06;;;8.02;77.20
7834;BME280;3962;42.696;23.354;2023-04-02T05:55:31;94393.63;;;8.17;76.63
7834;BME280;3962;42.696;23.354;2023-04-02T05:58:03;94396.75;;;8.30;75.41
7834;BME280;3962;42.696;23.354;2023-04-02T06:00:48;94395.81;;;8.39;75.08
7834;BME280;3962;42.696;23.354;2023-04-02T06:03:23;94389.38;;;8.41;75.71
7834;BME280;3962;42.696;23.354;2023-04-02T06:05:52;94387.28;;;8.53;74.32
7834;BME280;3962;42.696;23.354;2023-04-02T06:08:25;94390.63;;;8.55;73.28
7834;BME280;3962;42.696;23.354;2023-04-02T06:10:59;94396.91;;;8.54;73.35
7834;BME280;3962;42.696;23.354;2023-04-02T06:13:27;94393.78;;;8.58;72.80
7834;BME280;3962;42.696;23.354;2023-04-02T06:15:54;94399.97;;;8.67;73.04
7834;BME280;3962;42.696;23.354;2023-04-02T06:18:23;94405.31;;;8.75;73.09
7834;BME280;3962;42.696;23.354;2023-04-02T06:20:51;94404.72;;;8.89;72.16
7834;BME280;3962;42.696;23.354;2023-04-02T06:23:22;94402.38;;;8.86;72.04
7834;BME280;3962;42.696;23.354;2023-04-02T06:26:01;94397.75;;;8.88;72.36
7834;BME280;3962;42.696;23.354;2023-04-02T06:28:33;94400.47;;;9.04;72.66
7834;BME280;3962;42.696;23.354;2023-04-02T06:31:07;94412.44;;;9.08;71.44
7834;BME280;3962;42.696;23.354;2023-04-02T06:33:36;94398.22;;;9.17;71.39
7834;BME280;3962;42.696;23.354;2023-04-02T06:36:04;94403.06;;;9.29;70.88
7834;BME280;3962;42.696;23.354;2023-04-02T06:38:34;94396.78;;;9.38;70.94
7834;BME280;3962;42.696;23.354;2023-04-02T06:41:06;94405.22;;;9.26;71.41
7834;BME280;3962;42.696;23.354;2023-04-02T06:43:40;94392.59;;;9.20;72.18
7834;BME280;3962;42.696;23.354;2023-04-02T06:46:24;94400.41;;;9.29;71.67
7834;BME280;3962;42.696;23.354;2023-04-02T06:48:56;94406.94;;;9.43;70.67
7834;BME280;3962;42.696;23.354;2023-04-02T06:51:27;94408.94;;;9.49;70.19
7834;BME280;3962;42.696;23.354;2023-04-02T06:53:54;94402.34;;;9.53;70.18
7834;BME280;3962;42.696;23.354;2023-04-02T06:56:32;94414.97;;;9.67;70.55
7834;BME280;3962;42.696;23.354;2023-04-02T06:59:02;94415.16;;;9.73;70.24
7834;BME280;3962;42.696;23.354;2023-04-02T07:01:36;94410.19;;;9.86;69.94
7834;BME280;3962;42.696;23.354;2023-04-02T07:04:05;94419.50;;;9.98;69.11
7834;BME280;3962;42.696;23.354;2023-04-02T07:06:32;94417.03;;;10.05;68.93
7834;BME280;3962;42.696;23.354;2023-04-02T07:08:59;94420.88;;;10.10;69.11
7834;BME280;3962;42.696;23.354;2023-04-02T07:11:27;94427.69;;;10.13;69.08
7834;BME280;3962;42.696;23.354;2023-04-02T07:13:54;94425.72;;;10.39;68.50
7834;BME280;3962;42.696;23.354;2023-04-02T07:16:23;94416.53;;;10.57;68.14
7834;BME280;3962;42.696;23.354;2023-04-02T07:18:51;94426.00;;;10.76;68.20
7834;BME280;3962;42.696;23.354;2023-04-02T07:21:19;94432.41;;;10.97;67.25
7834;BME280;3962;42.696;23.354;2023-04-02T07:23:46;94427.56;;;11.08;65.93
7834;BME280;3962;42.696;23.354;2023-04-02T07:26:15;94428.72;;;11.22;65.50
7834;BME280;3962;42.696;23.354;2023-04-02T07:28:44;94436.97;;;11.35;64.96
7834;BME280;3962;42.696;23.354;2023-04-02T07:31:15;94428.25;;;11.49;64.70
7834;BME280;3962;42.696;23.354;2023-04-02T07:33:42;94437.88;;;11.66;64.44
7834;BME280;3962;42.696;23.354;2023-04-02T07:36:13;94434.03;;;11.68;64.11
7834;BME280;3962;42.696;23.354;2023-04-02T07:38:40;94435.03;;;11.98;62.65
7834;BME280;3962;42.696;23.354;2023-04-02T07:41:08;94438.13;;;12.09;61.17
7834;BME280;3962;42.696;23.354;2023-04-02T07:43:35;94428.59;;;12.37;60.49
7834;BME280;3962;42.696;23.354;2023-04-02T07:46:03;94428.09;;;12.56;59.38
7834;BME280;3962;42.696;23.354;2023-04-02T07:48:30;94428.22;;;12.63;59.20
7834;BME280;3962;42.696;23.354;2023-04-02T07:50:57;94436.47;;;12.90;59.88
7834;BME280;3962;42.696;23.354;2023-04-02T07:53:27;94427.94;;;14.17;57.54
7834;BME280;3962;42.696;23.354;2023-04-02T07:55:55;94416.44;;;14.79;53.86
7834;BME280;3962;42.696;23.354;2023-04-02T07:58:22;94427.41;;;16.20;51.06
7834;BME280;3962;42.696;23.354;2023-04-02T08:00:49;94428.19;;;16.08;48.86
7834;BME280;3962;42.696;23.354;2023-04-02T08:03:18;94435.38;;;16.61;49.36
7834;BME280;3962;42.696;23.354;2023-04-02T08:05:50;94431.06;;;16.73;47.09
7834;BME280;3962;42.696;23.354;2023-04-02T08:08:17;94432.13;;;16.85;47.84
7834;BME280;3962;42.696;23.354;2023-04-02T08:10:44;94434.00;;;17.36;45.36
7834;BME280;3962;42.696;23.354;2023-04-02T08:13:11;94448.28;;;18.20;43.42
7834;BME280;3962;42.696;23.354;2023-04-02T08:15:38;94436.41;;;18.40;42.50
7834;BME280;3962;42.696;23.354;2023-04-02T08:18:06;94441.25;;;18.19;43.26
7834;BME280;3962;42.696;23.354;2023-04-02T08:20:34;94443.69;;;18.20;43.78
7834;BME280;3962;42.696;23.354;2023-04-02T08:23:01;94456.72;;;17.21;44.85
7834;BME280;3962;42.696;23.354;2023-04-02T08:25:30;94448.41;;;16.64;46.50
7834;BME280;3962;42.696;23.354;2023-04-02T08:27:57;94438.94;;;17.46;45.97
7834;BME280;3962;42.696;23.354;2023-04-02T08:30:25;94439.91;;;17.90;43.72
7834;BME280;3962;42.696;23.354;2023-04-02T08:32:52;94445.44;;;18.52;43.42
7834;BME280;3962;42.696;23.354;2023-04-02T08:35:19;94447.50;;;19.18;41.93
7834;BME280;3962;42.696;23.354;2023-04-02T08:37:49;94447.50;;;18.87;41.53
7834;BME280;3962;42.696;23.354;2023-04-02T08:40:21;94452.81;;;18.70;41.37
7834;BME280;3962;42.696;23.354;2023-04-02T08:43:00;94455.31;;;19.02;41.11
7834;BME280;3962;42.696;23.354;2023-04-02T08:45:38;94448.34;;;18.00;43.99
7834;BME280;3962;42.696;23.354;2023-04-02T08:48:11;94447.16;;;16.79;45.16
7834;BME280;3962;42.696;23.354;2023-04-02T08:50:41;94456.09;;;16.93;45.30
7834;BME280;3962;42.696;23.354;2023-04-02T08:53:13;94445.97;;;17.08;45.01
7834;BME280;3962;42.696;23.354;2023-04-02T08:55:45;94455.69;;;17.28;44.69
7834;BME280;3962;42.696;23.354;2023-04-02T08:58:25;94462.72;;;17.42;44.53
7834;BME280;3962;42.696;23.354;2023-04-02T09:00:55;94451.16;;;18.31;42.13
7834;BME280;3962;42.696;23.354;2023-04-02T09:03:27;94451.25;;;19.17;41.68
7834;BME280;3962;42.696;23.354;2023-04-02T09:05:58;94444.84;;;18.50;40.75
7834;BME280;3962;42.696;23.354;2023-04-02T09:08:28;94454.06;;;19.04;40.69
7834;BME280;3962;42.696;23.354;2023-04-02T09:11:01;94445.88;;;17.86;42.54
7834;BME280;3962;42.696;23.354;2023-04-02T09:13:33;94447.09;;;18.03;43.64
7834;BME280;3962;42.696;23.354;2023-04-02T09:16:06;94444.66;;;18.83;42.33
7834;BME280;3962;42.696;23.354;2023-04-02T09:18:34;94444.94;;;19.30;41.82
7834;BME280;3962;42.696;23.354;2023-04-02T09:21:17;94448.56;;;19.66;39.71
7834;BME280;3962;42.696;23.354;2023-04-02T09:23:49;94442.81;;;19.07;40.92
7834;BME280;3962;42.696;23.354;2023-04-02T09:26:19;94446.78;;;18.24;42.22
7834;BME280;3962;42.696;23.354;2023-04-02T09:28:48;94442.22;;;16.76;44.35
7834;BME280;3962;42.696;23.354;2023-04-02T09:31:18;94439.28;;;16.52;46.22
7834;BME280;3962;42.696;23.354;2023-04-02T09:33:47;94451.84;;;16.38;45.98
7834;BME280;3962;42.696;23.354;2023-04-02T09:36:31;94442.22;;;16.10;45.64
7834;BME280;3962;42.696;23.354;2023-04-02T09:39:02;94436.22;;;16.01;46.17
7834;BME280;3962;42.696;23.354;2023-04-02T09:41:32;94441.06;;;16.25;46.18
7834;BME280;3962;42.696;23.354;2023-04-02T09:44:27;94437.75;;;16.36;47.30
7834;BME280;3962;42.696;23.354;2023-04-02T09:46:57;94444.03;;;16.50;46.52
7834;BME280;3962;42.696;23.354;2023-04-02T09:49:26;94435.88;;;16.24;45.87
7834;BME280;3962;42.696;23.354;2023-04-02T09:52:19;94428.88;;;16.29;46.57
7834;BME280;3962;42.696;23.354;2023-04-02T09:55:15;94431.13;;;16.26;46.13
7834;BME280;3962;42.696;23.354;2023-04-02T09:57:43;94417.38;;;15.95;46.40
7834;BME280;3962;42.696;23.354;2023-04-02T10:00:16;94418.38;;;15.47;46.35
7834;BME280;3962;42.696;23.354;2023-04-02T10:02:45;94417.59;;;15.25;48.19
7834;BME280;3962;42.696;23.354;2023-04-02T10:05:18;94416.72;;;15.18;47.51
7834;BME280;3962;42.696;23.354;2023-04-02T10:07:48;94422.56;;;15.28;47.60
7834;BME280;3962;42.696;23.354;2023-04-02T10:10:23;94416.34;;;15.89;44.51
7834;BME280;3962;42.696;23.354;2023-04-02T10:12:58;94417.63;;;16.06;44.53
7834;BME280;3962;42.696;23.354;2023-04-02T10:15:31;94414.63;;;15.75;45.14
7834;BME280;3962;42.696;23.354;2023-04-02T10:18:06;94412.84;;;15.55;47.48
7834;BME280;3962;42.696;23.354;2023-04-02T10:20:38;94412.16;;;15.74;45.51
7834;BME280;3962;42.696;23.354;2023-04-02T10:23:12;94398.53;;;16.29;45.57
7834;BME280;3962;42.696;23.354;2023-04-02T10:25:48;94402.28;;;16.41;45.22
7834;BME280;3962;42.696;23.354;2023-04-02T10:28:28;94401.78;;;16.24;45.42
7834;BME280;3962;42.696;23.354;2023-04-02T10:31:08;94412.88;;;16.75;45.32
7834;BME280;3962;42.696;23.354;2023-04-02T10:33:44;94407.50;;;17.07;44.52
7834;BME280;3962;42.696;23.354;2023-04-02T10:36:22;94415.97;;;17.56;43.57
7834;BME280;3962;42.696;23.354;2023-04-02T10:38:55;94410.00;;;17.09;43.95
7834;BME280;3962;42.696;23.354;2023-04-02T10:41:30;94418.88;;;16.90;43.70
7834;BME280;3962;42.696;23.354;2023-04-02T10:44:10;94406.88;;;17.12;42.74
7834;BME280;3962;42.696;23.354;2023-04-02T10:46:45;94407.28;;;17.41;42.32
7834;BME280;3962;42.696;23.354;2023-04-02T10:49:23;94403.78;;;17.08;42.53
7834;BME280;3962;42.696;23.354;2023-04-02T10:51:57;94394.50;;;16.91;42.16
7834;BME280;3962;42.696;23.354;2023-04-02T10:54:40;94396.97;;;16.80;43.76
7834;BME280;3962;42.696;23.354;2023-04-02T10:57:21;94398.63;;;17.39;43.79
7834;BME280;3962;42.696;23.354;2023-04-02T10:59:54;94400.28;;;18.04;41.15
7834;BME280;3962;42.696;23.354;2023-04-02T11:02:31;94378.03;;;18.21;40.68
7834;BME280;3962;42.696;23.354;2023-04-02T11:05:04;94388.84;;;17.71;41.23
7834;BME280;3962;42.696;23.354;2023-04-02T11:07:44;94384.38;;;18.40;41.41
7834;BME280;3962;42.696;23.354;2023-04-02T11:10:19;94384.22;;;18.35;41.10
7834;BME280;3962;42.696;23.354;2023-04-02T11:12:53;94390.34;;;18.04;40.86
7834;BME280;3962;42.696;23.354;2023-04-02T11:15:21;94395.97;;;17.96;42.49
7834;BME280;3962;42.696;23.354;2023-04-02T11:17:49;94378.94;;;17.58;43.04
7834;BME280;3962;42.696;23.354;2023-04-02T11:20:42;94384.22;;;18.28;42.16
7834;BME280;3962;42.696;23.354;2023-04-02T11:23:09;94383.44;;;17.71;40.72
7834;BME280;3962;42.696;23.354;2023-04-02T11:25:37;94385.16;;;17.33;42.01
7834;BME280;3962;42.696;23.354;2023-04-02T11:28:24;94378.16;;;17.06;42.62
7834;BME280;3962;42.696;23.354;2023-04-02T11:30:53;94376.72;;;16.71;42.77
7834;BME280;3962;42.696;23.354;2023-04-02T11:33:36;94376.09;;;16.88;43.07
7834;BME280;3962;42.696;23.354;2023-04-02T11:39:08;94368.78;;;17.54;42.55
7834;BME280;3962;42.696;23.354;2023-04-02T11:44:53;94372.91;;;17.63;39.97
7834;BME280;3962;42.696;23.354;2023-04-02T11:47:35;94374.22;;;17.41;40.32
7834;BME280;3962;42.696;23.354;2023-04-02T11:50:04;94371.31;;;17.16;43.40
7834;BME280;3962;42.696;23.354;2023-04-02T11:52:34;94364.31;;;17.92;41.23
7834;BME280;3962;42.696;23.354;2023-04-02T11:55:32;94357.03;;;18.43;40.79
7834;BME280;3962;42.696;23.354;2023-04-02T11:58:29;94360.28;;;19.06;39.67
7834;BME280;3962;42.696;23.354;2023-04-02T12:01:20;94358.22;;;18.09;40.09
7834;BME280;3962;42.696;23.354;2023-04-02T12:04:26;94360.06;;;17.65;40.71
7834;BME280;3962;42.696;23.354;2023-04-02T12:07:09;94369.25;;;17.12;42.13
7834;BME280;3962;42.696;23.354;2023-04-02T12:09:44;94364.50;;;17.14;41.71
7834;BME280;3962;42.696;23.354;2023-04-02T12:12:21;94363.63;;;17.46;42.22
7834;BME280;3962;42.696;23.354;2023-04-02T12:14:52;94353.28;;;17.49;40.97
7834;BME280;3962;42.696;23.354;2023-04-02T12:17:24;94360.56;;;17.16;41.25
7834;BME280;3962;42.696;23.354;2023-04-02T12:19:59;94354.59;;;16.75;41.54
7834;BME280;3962;42.696;23.354;2023-04-02T12:22:29;94352.75;;;16.63;42.13
7834;BME280;3962;42.696;23.354;2023-04-02T12:24:59;94359.31;;;17.19;41.77
7834;BME280;3962;42.696;23.354;2023-04-02T12:27:28;94346.28;;;17.42;42.48
7834;BME280;3962;42.696;23.354;2023-04-02T12:29:55;94364.47;;;18.03;40.57
7834;BME280;3962;42.696;23.354;2023-04-02T12:32:37;94362.44;;;18.67;38.59
7834;BME280;3962;42.696;23.354;2023-04-02T12:35:05;94366.41;;;19.20;38.50
7834;BME280;3962;42.696;23.354;2023-04-02T12:37:33;94354.56;;;19.45;38.03
7834;BME280;3962;42.696;23.354;2023-04-02T12:40:01;94359.56;;;19.60;36.92
7834;BME280;3962;42.696;23.354;2023-04-02T12:42:32;94352.44;;;18.74;38.70
7834;BME280;3962;42.696;23.354;2023-04-02T12:45:03;94344.97;;;18.14;38.09
7834;BME280;3962;42.696;23.354;2023-04-02T12:47:31;94346.50;;;18.28;38.16
7834;BME280;3962;42.696;23.354;2023-04-02T12:50:03;94354.44;;;18.17;38.69
7834;BME280;3962;42.696;23.354;2023-04-02T12:52:33;94339.94;;;17.80;38.25
7834;BME280;3962;42.696;23.354;2023-04-02T12:55:01;94334.28;;;17.95;39.26
7834;BME280;3962;42.696;23.354;2023-04-02T12:57:42;94346.84;;;17.50;39.30
7834;BME280;3962;42.696;23.354;2023-04-02T13:00:31;94338.91;;;16.92;39.84
7834;BME280;3962;42.696;23.354;2023-04-02T13:03:16;94330.22;;;16.83;41.31
7834;BME280;3962;42.696;23.354;2023-04-02T13:06:15;94340.97;;;16.83;41.50
7834;BME280;3962;42.696;23.354;2023-04-02T13:08:46;94340.09;;;17.02;41.11
7834;BME280;3962;42.696;23.354;2023-04-02T13:11:13;94331.16;;;17.47;40.29
7834;BME280;3962;42.696;23.354;2023-04-02T13:13:42;94329.31;;;17.35;38.89
7834;BME280;3962;42.696;23.354;2023-04-02T13:16:28;94334.28;;;17.18;39.96
7834;BME280;3962;42.696;23.354;2023-04-02T13:21:53;94323.59;;;18.19;38.07
7834;BME280;3962;42.696;23.354;2023-04-02T13:24:21;94325.44;;;18.56;37.01
7834;BME280;3962;42.696;23.354;2023-04-02T13:26:49;94325.41;;;18.25;37.89
7834;BME280;3962;42.696;23.354;2023-04-02T13:29:22;94315.81;;;18.42;38.96
7834;BME280;3962;42.696;23.354;2023-04-02T13:31:51;94315.31;;;18.76;37.04
7834;BME280;3962;42.696;23.354;2023-04-02T13:34:18;94317.06;;;19.19;36.22
7834;BME280;3962;42.696;23.354;2023-04-02T13:36:45;94323.59;;;19.66;35.27
7834;BME280;3962;42.696;23.354;2023-04-02T13:39:14;94312.63;;;19.00;35.62
7834;BME280;3962;42.696;23.354;2023-04-02T13:41:42;94311.50;;;19.50;36.13
7834;BME280;3962;42.696;23.354;2023-04-02T13:44:21;94316.22;;;19.19;35.46
7834;BME280;3962;42.696;23.354;2023-04-02T13:46:48;94309.44;;;18.85;35.49
7834;BME280;3962;42.696;23.354;2023-04-02T13:49:15;94316.47;;;18.86;36.56
7834;BME280;3962;42.696;23.354;2023-04-02T13:51:44;94317.09;;;18.64;36.81
7834;BME280;3962;42.696;23.354;2023-04-02T13:54:19;94310.84;;;18.70;35.85
7834;BME280;3962;42.696;23.354;2023-04-02T13:56:47;94304.50;;;17.90;35.92
7834;BME280;3962;42.696;23.354;2023-04-02T13:59:14;94302.03;;;18.26;37.24